KBURKNID

Guest
Details From KBUR - BOB HOPE
To KNID - China Lake Naws
Flight Number -
Tags generated
Created
Modified
Stats Distance 95 nm / 176 km
Max Altitude 0 ft / 0 m
Waypoints 2
Social Downloads 0
Likes 0
Share VATSIM

Download

Looking for another format? Having issues loading an existing format? Contact us
Advertisement - Login to hide

Notes

Basic altitude profile: - Ascent Rate: 1500ft/min - Ascent Speed: 140kts - Cruise Altitude: 6000ft - Cruise Speed: 170kts - Descent Rate: 1500ft/min - Descent Speed: 140kts Options: - Use NATs: yes - Use PACOTS: no - Use low airways: no - Use high airways: no

Route

KBUR KNID

ID Type Via Altitude Latitude Longitude Leg Dist Tot Dist Heading (true) Name
O KBUR APT - 0 ft / 0 m 34.20048˚ -118.35877˚ - 0 nm - BOB HOPE
O KNID APT - 0 ft / 0 m 35.68552˚ -117.69159˚ 95 nm 95 nm 20° / 20° China Lake Naws

Altitude Profile

Advertisement - Login to hide

KBUR

Details ICAO KBUR (BUR)
Name BOB HOPE
Region United States
Timezone America/Los_Angeles (UTC-8.0)
Stats Elevation 778 ft / 237 m (AMSL)
Location 34.200475° -118.358767°
Runways 2
Magnetic Variation 12.047° E

METAR

KBUR 142053Z 12006KT 10SM CLR 25/M06 A3000 RMK AO2 SLP148 T02501056 58008 $

Decode

TAF

TAF KBUR 141724Z 1418/1518 07010KT P6SM SKC WS010/04035KT FM142200 05006KT P6SM SKC FM150500 VRB03KT P6SM SKC

Decode

Departure Runways

ID Width Length Bearing (true) Bearing (mag) Surface Threshold Offset Overrun Length
08 151 ft / 46 m 5,835 ft / 1,779 m 90.92° 78.87° Asphalt 0 ft / 0 m 259 ft / 79 m
15 151 ft / 46 m 6,962 ft / 2,122 m 167.12° 155.07° Asphalt 909 ft / 277 m 0 ft / 0 m
26 151 ft / 46 m 5,835 ft / 1,779 m 270.93° 258.88° Asphalt 0 ft / 0 m 253 ft / 77 m
33 151 ft / 46 m 6,962 ft / 2,122 m 347.12° 335.07° Asphalt 351 ft / 107 m 0 ft / 0 m

KNID

Details ICAO KNID (NID)
Name China Lake Naws
Region United States
Timezone America/Los_Angeles (UTC-8.0)
Stats Elevation 2,283 ft / 696 m (AMSL)
Location 35.685516° -117.691590°
Runways 3
Magnetic Variation 12.196° E

METAR

KNID 142056Z 09012KT 10SM FEW220 22/M13 A3016 RMK AO2 SLP211 T02221128 58016

Decode

TAF

TAF TAF AMD KNID 1419/1515 09012G22KT 9999 FEW220 520009 520906 QNH3015INS WND 040V140 BECMG 1422/1500 16008G16KT 9999 SKC 510009 510909 QNH3013INS BECMG 1501/1503 21006KT 9999 SKC 500000 QNH3014INS T21/1422Z TM01/1514Z AMD 1905

Decode

Destination Runways

ID Width Length Bearing (true) Bearing (mag) Surface Threshold Offset Overrun Length
03 200 ft / 61 m 9,997 ft / 3,047 m 42.13° 29.93° Asphalt 0 ft / 0 m 1,000 ft / 305 m
08 200 ft / 61 m 7,687 ft / 2,343 m 90.78° 78.58° Asphalt 0 ft / 0 m 1,000 ft / 305 m
14 200 ft / 61 m 9,027 ft / 2,752 m 154.23° 142.03° Asphalt 0 ft / 0 m 1,000 ft / 305 m
21 200 ft / 61 m 9,997 ft / 3,047 m 222.15° 209.95° Asphalt 0 ft / 0 m 1,000 ft / 305 m
26 200 ft / 61 m 7,687 ft / 2,343 m 270.79° 258.59° Asphalt 0 ft / 0 m 1,000 ft / 305 m
32 200 ft / 61 m 9,027 ft / 2,752 m 334.24° 322.04° Asphalt 0 ft / 0 m 1,000 ft / 305 m

Popular Alternatives